Portada
METAR-TAF:

METAR-TAF

Aeropuertos :

Hoonah, Alaska, Estados Unidos

latitud: 58-07N, longitud: 135-27W, altitud: 0 m

Observación

El informe se hizo hace 1 hora y 1 minutos, a las 17:56 UTC
Viento 3 kt del este-noreste
Temperatura 2°C
Humedad 75%
Presión 1001 hPa
Visibilidad: 16.1 km
Escasas nubes a una altura de 7500 ft
Cielo cubierto a una altura de 12000 ft

METAR: PAOH 201756Z AUTO 06003KT 10SM FEW075 OVC120 02/M02 A2955 RMK AO2 SLP006 T00171022 10017 20011 55001 FZRANO

Hora: 09:57 (18:57 UTC)


TAF: falta

Observaciones y pronósticos meteorológicos de más de 4000 aeropuertos (mensajes METAR y TAF).

Los puntos amarillos y rojos representan las estaciones disponibles.

Ponga el ratón en el punto deseado para ver el nombre de la estación.

Haga clic para ver las observaciones y los pronósticos meteorológicos.

Para cambiar el mapa : haga clic en los botones verdes con una cruz de color negro para hacer un zoom, en el botón verde con un guión para alejar o en las flechas verdes para mapas adyacentes.


METAR-TAF: